Historyczne dane pomiarowe

Dodano dane terminowe – wersja testowa.

Dane z okresu 1951-2019

Wersja bazy: 1.34 [2019-03-16, lista zmian], aktualizacja planowana na 2019-04-15

Dane meteo z obszaru Polski uzyskane na podstawie danych udostępnionych przez Instytut Meteorologii i Gospodarki Wodnej – Państwowy Instytut Badawczy.

 

Wybierz Datę:    

       

TemperaturaWilgotnośćWiatrCiśnienieOpadyŚniegCzas trwania zjawisk
 Stacja t tx tn tng RH VA  wxwx mslp ppp RRR   cm mm wxwxwxwxwxwxwx
1987-07-08 22.8 30.0 14.1 6.5-- 2.0 3.0---- 0.0------------
1987-07-07 19.5 27.0 8.7 4.0-- 1.3 2.3---- 0.0------------
1987-07-06 15.5 20.0 5.1 5.2-- 2.0 0.7---- 0.0------------
1987-07-05 13.3 20.8 7.9 5.0-- 3.3 2.3---- 0.0------------
1987-07-04 14.9 21.0 7.8 3.5-- 2.3 1.3---- 0.0------------
1987-07-03 16.1 21.2 9.4 5.5-- 1.3 1.7---- 0.0------------
1987-07-02 19.8 27.0 15.5 14.5-- 3.7 3.0---- 0.0------------
1987-07-01 25.3 32.0 19.0 14.5-- 2.0 1.7---- 0.0------------
1987-06-30 22.6 26.0 18.5 16.4-- 4.7 1.3---- 0.0------------
1987-06-29 16.1 22.0 3.9 3.8-- 4.0 1.0---- 0.0------------
1987-06-28 16.3 20.0 10.4 7.5-- 6.7 3.0---- 3.5------------
1987-06-27 18.3 20.0 14.9 12.5-- 6.7 2.3---- 10.8------------
1987-06-26 15.7 21.0 8.1 7.0-- 5.0 2.3---- 0.0------------
1987-06-25 11.2 15.7 8.4 8.0-- 6.7 2.3---- 12.0------------
1987-06-24 16.2 19.2 13.1 11.7-- 4.0 3.0---- 4.2------------
1987-06-23 17.2 25.0 9.4 5.0-- 2.7 1.3---- 1.8------------
1987-06-22 17.0 22.8 9.2 5.7-- 1.3 2.3---- 0.0------------
1987-06-21 16.5 22.5 6.9 5.5-- 2.0 1.3---- 0.0------------
1987-06-20 13.8 20.5 2.9 1.2-- 1.3 2.3---- 0.0------------
1987-06-19 10.5 15.0 3.9 3.8-- 4.7 1.7---- 0.0------------
1987-06-18 9.9 17.0 1.1 1.0-- 3.3 1.7---- 0.0------------
1987-06-17 10.4 14.0 7.8 7.5-- 2.7 3.0---- 0.0------------
1987-06-16 15.0 23.7 9.6 9.5-- 6.7 5.0---- 2.5------------
1987-06-15 19.8 24.3 13.4 13.0-- 5.0 3.7---- 3.5------------
1987-06-14 18.2 27.0 11.4 10.5-- 2.7 2.3---- 4.2------------
1987-06-13 17.7 24.0 12.1 8.2-- 3.7 0.7---- 1.2------------
1987-06-12 18.4 22.3 11.4 7.4-- 2.0 1.7---- 0.0------------
1987-06-11 16.2 21.0 9.9 7.0-- 1.3 1.0---- 0.0------------
1987-06-10 15.8 19.0 13.2 10.0-- 5.0 1.0---- 1.4------------
1987-06-09 17.8 25.0 12.3 12.0-- 5.0 3.0---- 0.0------------
1987-06-08 20.8 25.0 16.0 13.1-- 6.3 4.3---- 1.8------------
1987-06-07 15.9 23.0 5.4 4.5-- 4.0 1.3---- 1.9------------
1987-06-06 12.6 15.9 11.4 10.0-- 8.0 2.3---- 0.5------------
1987-06-05 15.0 18.4 11.0 8.5-- 6.0 3.0---- 5.2------------
1987-06-04 13.0 18.0 3.4 4.0-- 3.0 2.3---- 0.0------------
1987-06-03 10.4 12.5 7.4 5.5-- 5.3 1.7---- 0.0------------
1987-06-02 8.0 12.6 4.4 4.0-- 7.3 1.3---- 7.0------------
1987-06-01 8.9 10.3 6.9 7.3-- 7.0 2.3---- 0.0------------
1987-05-31 5.5 8.0 2.7 3.2-- 7.0 1.3---- 0.0------------
1987-05-30 7.0 10.0 3.9 2.5-- 7.3 3.7---- 0.0------------
1987-05-29 9.6 13.9 5.0 4.0-- 5.3 3.0---- 0.0------------
1987-05-28 13.1 20.3 8.2 6.2-- 3.7 3.0---- 2.0------------
1987-05-27 11.7 18.0 1.4 0.1-- 3.0 3.0---- 0.0------------
1987-05-26 8.2 14.2 -2.6 -2.0-- 2.7 1.3---- 0.5------------
1987-05-25 7.0 13.0 2.4 2.0-- 2.7 2.3---- 0.0------------
1987-05-24 11.6 17.0 6.9 3.0-- 4.0 3.7---- 0.0------------
1987-05-23 9.8 12.0 8.8 8.0-- 8.0 4.3---- 0.1------------
1987-05-22 13.5 21.0 7.5 5.5-- 2.7 6.3---- 0.0------------
1987-05-21 9.4 11.8 7.4 7.0-- 8.0 3.0---- 6.0------------
1987-05-20 11.3 14.6 8.7 7.5-- 8.0 3.0---- 0.0------------
1987-05-19 14.7 17.9 11.4 10.0-- 8.0 3.0---- 3.0------------
1987-05-18 11.2 17.1 1.9 1.7-- 6.7 4.3---- 7.2------------
1987-05-17 8.3 12.0 5.9 4.8-- 6.3 1.3---- 0.2------------
1987-05-16 10.3 14.0 3.9 3.5-- 6.3 5.0---- 3.5------------
1987-05-15 6.9 13.0 1.9 -0.1-- 4.3 1.7---- 0.0------------
1987-05-14 9.3 12.0 4.9 4.5-- 8.0 4.3---- 12.3------------
1987-05-13 14.9 20.2 11.9 6.9-- 7.7 5.0---- 4.6------------
1987-05-12 11.0 17.4 2.2 -2.9-- 4.7 4.3---- 0.0------------
1987-05-11 9.3 16.2 5.7 5.0-- 4.3 3.0---- 0.0------------
1987-05-10 11.0 20.1 3.9 3.8-- 1.3 4.3---- 0.0------------
3504.4 ms

 

Źródłem pochodzenia danych jest Instytut Meteorologii i Gospodarki Wodnej – Państwowy Instytut Badawczy. Dane Instytutu Meteorologii i Gospodarki Wodnej – Państwowego Instytutu Badawczego zostały przetworzone.

Dane źródłowe można odnaleźć na stronie https://dane.imgw.pl